Flight Track Log - Related Links

Times and Time Zones

All times are in EST time to prevent confusion due to time zone crossing. See the SWA997 flight status page for this flight to view local times or setup timezone preferences in your user account.

Time Position Orientation Groundspeed Altitude Reporting Facility
EST Latitude Longitude Course Direction KTS MPH feet Rate Location/Type
Fri 12:56:40 PM 36.1883 -86.6994 325° Northwest 221 254 3,900  Level Memphis Center
Fri 12:57:42 PM 36.2031 -86.7903 281° West 259 298 7,000 3,097 Climbing Memphis Center
Fri 12:58:44 PM 36.2181 -86.8836 281° West 270 311 10,300 2,256 Climbing Memphis Center
Fri 12:59:47 PM 36.2358 -86.9986 281° West 335 386 11,700 2,112 Climbing Memphis Center
Fri 01:00:49 PM 36.2558 -87.1250 281° West 362 417 14,700 2,903 Climbing Memphis Center
Fri 01:01:00 PM 36.2930 -87.4299 277° West  Level FlightAware Approximate
Fri 01:01:51 PM 36.2764 -87.2564 281° West 378 435 17,700  Level Memphis Center
Fri 01:02:53 PM 36.2981 -87.3881 282° West 381 438 20,300 2,565 Climbing Memphis Center
Fri 01:03:55 PM 36.3167 -87.5464 278° West 390 449 23,000 2,129 Climbing Memphis Center
Fri 01:04:57 PM 36.3069 -87.6928 265° West 415 478 24,700 1,694 Climbing Memphis Center
Fri 01:05:59 PM 36.2997 -87.8444 267° West 431 496 26,500 1,839 Climbing Memphis Center
Fri 01:07:01 PM 36.2919 -87.9950 266° West 433 498 28,500 2,032 Climbing Memphis Center
Fri 01:08:03 PM 36.2825 -88.1553 266° West 432 497 30,700 1,790 Climbing Memphis Center
Fri 01:09:05 PM 36.2744 -88.3011 266° West 427 491 32,200 1,548 Climbing Memphis Center
Fri 01:10:07 PM 36.2675 -88.4469 267° West 427 491 33,900 1,632 Climbing Memphis Center
Fri 01:11:10 PM 36.2603 -88.5908 266° West 421 484 35,600 1,008 Climbing Memphis Center
Fri 01:12:12 PM 36.2561 -88.7317 268° West 414 476 36,000 194 Climbing Memphis Center
Fri 01:13:14 PM 36.2544 -88.8725 269° West 412 474 36,000  Level Memphis Center
Fri 01:14:16 PM 36.2528 -89.0414 269° West 409 471 36,000  Level Memphis Center
Fri 01:15:18 PM 36.2514 -89.1822 269° West 407 468 36,000  Level Memphis Center
Fri 01:16:20 PM 36.2492 -89.3228 269° West 406 467 36,000  Level Memphis Center
Fri 01:17:22 PM 36.2467 -89.4633 269° West 404 465 36,000  Level Memphis Center
Fri 01:18:24 PM 36.2444 -89.6019 269° West 403 464 36,000  Level Memphis Center
Fri 01:19:26 PM 36.2425 -89.7392 269° West 401 461 36,000  Level Memphis Center
Fri 01:20:28 PM 36.2397 -89.8761 269° West 400 460 36,000  Level Memphis Center
Fri 01:21:30 PM 36.2375 -90.0128 269° West 399 459 36,000  Level Memphis Center
Fri 01:22:32 PM 36.2344 -90.1506 268° West 399 459 36,000  Level Memphis Center
Fri 01:23:34 PM 36.2297 -90.3133 268° West 399 459 36,000  Level Memphis Center
Fri 01:24:37 PM 36.2269 -90.4494 269° West 397 457 36,000  Level Memphis Center
Fri 01:25:39 PM 36.2244 -90.5844 269° West 396 456 36,000  Level Memphis Center
Fri 01:26:41 PM 36.2200 -90.7183 268° West 394 453 36,000  Level Memphis Center
Fri 01:27:43 PM 36.2172 -90.8533 269° West 394 453 36,000  Level Memphis Center
Fri 01:28:45 PM 36.2136 -90.9872 268° West 393 452 36,000  Level Memphis Center
Fri 01:29:47 PM 36.2086 -91.1478 268° West 392 451 36,000  Level Memphis Center
Fri 01:30:49 PM 36.2036 -91.2808 267° West 391 450 36,000  Level Memphis Center
Fri 01:31:51 PM 36.1992 -91.4128 268° West 388 447 36,000  Level Memphis Center
Fri 01:32:53 PM 36.1964 -91.5447 269° West 386 444 36,000  Level Memphis Center
Fri 01:33:55 PM 36.1925 -91.6786 268° West 386 444 36,000  Level Memphis Center
Fri 01:34:58 PM 36.1875 -91.8117 267° West 386 444 36,000 240 Level Memphis Center
Fri 01:36:00 PM 36.1803 -91.9722 267° West 387 445 36,500 823 Climbing Memphis Center
Fri 01:37:02 PM 36.1753 -92.1078 267° West 387 445 37,700 726 Climbing Memphis Center
Fri 01:38:04 PM 36.1714 -92.2394 268° West 386 444 38,000 145 Climbing Memphis Center
Fri 01:39:06 PM 36.1650 -92.3717 267° West 386 444 38,000  Level Memphis Center
Fri 01:40:08 PM 36.1603 -92.5050 268° West 385 443 38,000  Level Memphis Center
Fri 01:41:10 PM 36.1542 -92.6386 267° West 385 443 38,000  Level Memphis Center
Fri 01:42:12 PM 36.1489 -92.7717 267° West 386 444 38,000  Level Memphis Center
Fri 01:43:14 PM 36.1408 -92.9325 266° West 386 444 38,000  Level Memphis Center
Fri 01:44:16 PM 36.1347 -93.0661 267° West 386 444 38,000  Level Memphis Center
Fri 01:45:19 PM 36.1283 -93.1964 267° West 386 444 38,000  Level Memphis Center
Fri 01:46:21 PM 36.1225 -93.3300 267° West 386 444 38,000  Level Memphis Center
Fri 01:47:23 PM 36.1164 -93.4606 267° West 384 442 38,000  Level Memphis Center
Fri 01:48:25 PM 36.1103 -93.5914 267° West 383 441 38,000  Level Memphis Center
Fri 01:49:27 PM 36.1014 -93.7464 266° West 379 436 38,000  Level Memphis Center
Fri 01:50:29 PM 36.0942 -93.8761 266° West 379 436 38,000  Level Memphis Center
Fri 01:51:31 PM 36.0881 -94.0050 267° West 379 436 38,000  Level Memphis Center
Fri 01:52:33 PM 36.0811 -94.1342 266° West 378 435 38,000  Level Memphis Center
Fri 01:53:35 PM 36.0742 -94.2647 266° West 378 435 38,000  Level Memphis Center
Fri 01:54:37 PM 36.0661 -94.3958 266° West 378 435 38,000  Level Memphis Center
Fri 01:55:40 PM 36.0569 -94.5278 265° West 382 440 38,000  Level Memphis Center
Fri 01:56:42 PM 36.0494 -94.6847 267° West 382 440 38,000  Level Memphis Center
Fri 01:57:44 PM 36.0417 -94.8172 266° West 382 440 38,000  Level Memphis Center
Fri 01:58:24 PM 36.0367 -94.8950 265° West 380 437 38,000  Level Kansas City Center
Fri 01:59:27 PM 36.0289 -95.0275 266° West 381 438 38,000  Level Kansas City Center
Fri 02:00:29 PM 36.0194 -95.1600 265° West 381 438 38,000  Level Kansas City Center
Fri 02:01:31 PM 36.0117 -95.2939 266° West 383 441 38,000  Level Kansas City Center
Fri 02:02:33 PM 36.0011 -95.4525 265° West 383 441 38,000  Level Kansas City Center
Fri 02:03:35 PM 35.9917 -95.5869 265° West 385 443 38,000  Level Kansas City Center
Fri 02:04:37 PM 35.9828 -95.7203 265° West 385 443 38,000  Level Kansas City Center
Fri 02:05:39 PM 35.9733 -95.8547 265° West 388 447 38,000  Level Kansas City Center
Fri 02:06:42 PM 35.9633 -95.9900 265° West 389 448 38,000  Level Kansas City Center
Fri 02:07:44 PM 35.9544 -96.1261 265° West 392 451 38,000  Level Kansas City Center
Fri 02:08:46 PM 35.9444 -96.2636 265° West 395 455 38,000  Level Kansas City Center
Fri 02:09:48 PM 35.9325 -96.4289 265° West 398 458 38,000  Level Kansas City Center
Fri 02:10:50 PM 35.9242 -96.5436 265° West 401 461 38,000  Level Kansas City Center
Fri 02:11:52 PM 35.9122 -96.7067 265° West 401 461 38,000  Level Kansas City Center
Fri 02:12:54 PM 35.9014 -96.8442 264° West 402 463 38,000  Level Kansas City Center
Fri 02:13:56 PM 35.8911 -96.9792 265° West 402 463 38,000  Level Kansas City Center
Fri 02:14:58 PM 35.8803 -97.1153 264° West 402 463 38,000  Level Kansas City Center
Fri 02:16:00 PM 35.8689 -97.2528 264° West 402 463 38,000  Level Kansas City Center
Fri 02:17:02 PM 35.8564 -97.4167 265° West 402 463 38,000  Level Kansas City Center
Fri 02:18:05 PM 35.8453 -97.5522 264° West 402 463 38,000  Level Kansas City Center
Fri 02:19:21 PM 35.8306 -97.7158 264° West 404 465 38,000  Level Fort Worth Center
Fri 02:20:24 PM 35.8167 -97.8769 264° West 399 459 38,000  Level Fort Worth Center
Fri 02:21:26 PM 35.8047 -98.0114 264° West 399 459 38,000  Level Fort Worth Center
Fri 02:22:28 PM 35.7889 -98.1444 262° West 395 455 38,000  Level Fort Worth Center
Fri 02:23:15 PM 35.7919 -98.2578 272° West 397 457 38,000  Level Kansas City Center
Fri 02:24:17 PM 35.7939 -98.3944 271° West 398 458 38,000  Level Kansas City Center
Fri 02:25:19 PM 35.7956 -98.5319 271° West 398 458 38,000  Level Kansas City Center
Fri 02:26:21 PM 35.7964 -98.6708 270° West 401 461 38,000  Level Kansas City Center
Fri 02:27:23 PM 35.7992 -98.8294 271° West 401 461 38,000  Level Kansas City Center
Fri 02:28:25 PM 35.8003 -98.9692 271° West 404 465 38,000  Level Kansas City Center
Fri 02:29:27 PM 35.8011 -99.1086 270° West 406 467 38,000  Level Kansas City Center
Fri 02:30:30 PM 35.8022 -99.2486 271° West 407 468 38,000  Level Kansas City Center
Fri 02:31:32 PM 35.8033 -99.4064 271° West 407 468 38,000  Level Kansas City Center
Fri 02:32:34 PM 35.8042 -99.5486 270° West 409 471 38,000  Level Kansas City Center
Fri 02:34:27 PM 35.8044 -99.8031 270° West 411 473 38,000  Level Albuquerque Center
Fri 02:35:29 PM 35.8050 -99.9433 270° West 409 471 38,000  Level Albuquerque Center
Fri 02:36:31 PM 35.8047 -100.0822 270° West 407 468 38,000  Level Albuquerque Center
Fri 02:37:33 PM 35.8056 -100.2511 270° West 408 470 38,000  Level Albuquerque Center
Fri 02:38:35 PM 35.8036 -100.3906 269° West 407 468 38,000  Level Albuquerque Center
Fri 02:39:37 PM 35.8025 -100.5308 269° West 408 470 38,000  Level Albuquerque Center
Fri 02:40:39 PM 35.8017 -100.6719 270° West 410 472 38,000  Level Albuquerque Center
Fri 02:41:41 PM 35.8006 -100.8147 269° West 414 476 38,000  Level Albuquerque Center
Fri 02:42:44 PM 35.8003 -100.9614 270° West 417 480 38,000  Level Albuquerque Center
Fri 02:43:46 PM 35.7978 -101.1311 269° West 416 479 38,000  Level Albuquerque Center
Fri 02:44:48 PM 35.7969 -101.2708 270° West 412 474 38,000  Level Albuquerque Center
Fri 02:45:50 PM 35.7961 -101.4117 270° West 412 474 38,000  Level Albuquerque Center
Fri 02:46:52 PM 35.7933 -101.5531 269° West 415 478 38,000  Level Albuquerque Center
Fri 02:47:54 PM 35.7917 -101.6919 269° West 413 475 38,000  Level Albuquerque Center
Fri 02:48:56 PM 35.7894 -101.8572 269° West 408 470 38,000  Level Albuquerque Center
Fri 02:49:58 PM 35.7864 -101.9983 269° West 413 475 38,000  Level Albuquerque Center
Fri 02:51:00 PM 35.7847 -102.1375 269° West 412 474 38,000  Level Albuquerque Center
Fri 02:52:02 PM 35.7814 -102.2744 268° West 407 468 38,000  Level Albuquerque Center
Fri 02:53:04 PM 35.7783 -102.4131 268° West 407 468 38,000  Level Albuquerque Center
Fri 02:54:06 PM 35.7753 -102.5803 269° West 408 470 38,000  Level Albuquerque Center
Fri 02:55:09 PM 35.7717 -102.7178 268° West 406 467 38,000  Level Albuquerque Center
Fri 02:56:11 PM 35.7692 -102.8550 269° West 404 465 38,000  Level Albuquerque Center
Fri 02:57:13 PM 35.7650 -103.0050 268° West 403 464 38,000  Level Albuquerque Center
Fri 02:58:15 PM 35.7614 -103.1433 268° West 402 463 38,000  Level Albuquerque Center
Fri 02:59:17 PM 35.7586 -103.2792 269° West 398 458 38,000  Level Albuquerque Center
Fri 03:00:19 PM 35.7544 -103.4119 268° West 389 448 38,000  Level Albuquerque Center
Fri 03:01:21 PM 35.7511 -103.5447 268° West 387 445 38,000  Level Albuquerque Center
Fri 03:02:23 PM 35.7469 -103.6772 268° West 386 444 38,000  Level Albuquerque Center
Fri 03:03:25 PM 35.7417 -103.8306 268° West 384 442 38,000  Level Albuquerque Center
Fri 03:04:27 PM 35.7392 -103.9633 269° West 387 445 38,000  Level Albuquerque Center
Fri 03:05:29 PM 35.7347 -104.0950 268° West 386 444 38,000  Level Albuquerque Center
Fri 03:06:31 PM 35.7297 -104.2281 267° West 386 444 38,000  Level Albuquerque Center
Fri 03:07:33 PM 35.7244 -104.3592 267° West 385 443 38,000  Level Albuquerque Center
Fri 03:08:35 PM 35.7194 -104.4919 267° West 386 444 38,000  Level Albuquerque Center
Fri 03:09:38 PM 35.7122 -104.6489 267° West 392 451 38,000  Level Albuquerque Center
Fri 03:10:40 PM 35.7064 -104.7814 267° West 389 448 38,000  Level Albuquerque Center
Fri 03:11:42 PM 35.7014 -104.9156 267° West 390 449 38,000  Level Albuquerque Center
Fri 03:12:44 PM 35.6967 -105.0486 268° West 388 447 38,000  Level Albuquerque Center
Fri 03:13:46 PM 35.6906 -105.1817 267° West 387 445 38,000  Level Albuquerque Center
Fri 03:14:48 PM 35.6844 -105.3142 267° West 386 444 38,000  Level Albuquerque Center
Fri 03:15:50 PM 35.6772 -105.4678 267° West 384 442 38,000  Level Albuquerque Center
Fri 03:16:52 PM 35.6719 -105.5958 267° West 381 438 38,000  Level Albuquerque Center
Fri 03:17:54 PM 35.6656 -105.7281 267° West 386 444 38,000  Level Albuquerque Center
Fri 03:18:56 PM 35.6592 -105.8611 267° West 390 449 38,000  Level Albuquerque Center
Fri 03:19:58 PM 35.6539 -105.9953 267° West 393 452 38,000  Level Albuquerque Center
Fri 03:21:00 PM 35.6489 -106.1289 267° West 393 452 38,000  Level Albuquerque Center
Fri 03:22:02 PM 35.6369 -106.2892 265° West 391 450 38,000  Level Albuquerque Center
Fri 03:23:05 PM 35.6306 -106.4250 267° West 398 458 38,000  Level Albuquerque Center
Fri 03:24:07 PM 35.6225 -106.5739 266° West 405 466 38,000  Level Albuquerque Center
Fri 03:25:09 PM 35.6147 -106.7139 266° West 411 473 38,000  Level Albuquerque Center
Fri 03:26:11 PM 35.6058 -106.8667 266° West 415 478 38,000  Level Albuquerque Center
Fri 03:27:13 PM 35.5975 -107.0075 266° West 416 479 38,000  Level Albuquerque Center
Fri 03:28:15 PM 35.5889 -107.1586 266° West 414 476 38,000  Level Albuquerque Center
Fri 03:29:17 PM 35.5831 -107.2867 267° West 415 478 38,000  Level Albuquerque Center
Fri 03:30:19 PM 35.5675 -107.4419 263° West 411 473 38,000  Level Albuquerque Center
Fri 03:31:21 PM 35.5467 -107.5756 259° West 413 475 38,000  Level Albuquerque Center
Fri 03:32:23 PM 35.5250 -107.7342 261° West 420 483 38,000  Level Albuquerque Center
Fri 03:33:25 PM 35.5067 -107.8703 261° West 420 483 38,000  Level Albuquerque Center
Fri 03:34:27 PM 35.4842 -108.0269 260° West 418 481 38,000  Level Albuquerque Center
Fri 03:35:30 PM 35.4644 -108.1600 260° West 415 478 38,000  Level Albuquerque Center
Fri 03:36:32 PM 35.4425 -108.3150 260° West 413 475 38,000  Level Albuquerque Center
Fri 03:37:34 PM 35.4231 -108.4481 260° West 411 473 38,000  Level Albuquerque Center
Fri 03:38:36 PM 35.4036 -108.5822 260° West 414 476 38,000  Level Albuquerque Center
Fri 03:39:38 PM 35.3803 -108.7369 260° West 414 476 38,000  Level Albuquerque Center
Fri 03:40:40 PM 35.3608 -108.8678 260° West 410 472 38,000  Level Albuquerque Center
Fri 03:41:42 PM 35.3386 -109.0194 260° West 406 467 38,000  Level Albuquerque Center
Fri 03:42:44 PM 35.3189 -109.1483 259° West 403 464 38,000  Level Albuquerque Center
Fri 03:43:46 PM 35.2950 -109.2981 259° West 402 463 38,000  Level Albuquerque Center
Fri 03:44:48 PM 35.2753 -109.4269 259° West 401 461 38,000  Level Albuquerque Center
Fri 03:45:50 PM 35.2531 -109.5739 260° West 396 456 38,000  Level Albuquerque Center
Fri 03:46:52 PM 35.2336 -109.6981 259° West 390 449 38,000  Level Albuquerque Center
Fri 03:47:54 PM 35.2117 -109.8467 260° West 398 458 38,000  Level Albuquerque Center
Fri 03:48:57 PM 35.1922 -109.9742 259° West 400 460 38,000  Level Albuquerque Center
Fri 03:49:59 PM 35.1708 -110.0983 258° West 393 452 38,000  Level Albuquerque Center
Fri 03:51:01 PM 35.1458 -110.2461 258° West 396 456 38,000  Level Albuquerque Center
Fri 03:52:03 PM 35.1242 -110.3714 258° West 395 455 38,000  Level Albuquerque Center
Fri 03:53:05 PM 35.1006 -110.5169 259° West 393 452 38,000  Level Albuquerque Center
Fri 03:54:07 PM 35.0775 -110.6417 257° West 393 452 38,000  Level Albuquerque Center
Fri 03:55:09 PM 35.0536 -110.7806 258° West 395 455 38,000  Level Albuquerque Center
Fri 03:56:11 PM 35.0319 -110.9114 259° West 395 455 38,000  Level Albuquerque Center
Fri 03:57:13 PM 35.0094 -111.0403 258° West 394 453 38,000  Level Albuquerque Center
Fri 03:58:15 PM 34.9900 -111.1775 260° West 405 466 38,000  Level Albuquerque Center
Fri 03:59:17 PM 34.9619 -111.3336 258° West 398 458 38,000  Level Albuquerque Center
Fri 04:00:19 PM 34.9408 -111.4642 259° West 396 456 38,000  Level Albuquerque Center
Fri 04:01:21 PM 34.9169 -111.5967 258° West 400 460 38,000  Level Albuquerque Center
Fri 04:02:23 PM 34.8914 -111.7400 258° West 407 468 38,000  Level Albuquerque Center
Fri 04:03:26 PM 34.8683 -111.8750 258° West 409 471 38,000  Level Albuquerque Center
Fri 04:04:28 PM 34.8433 -112.0100 257° West 410 472 38,000  Level Albuquerque Center
Fri 04:05:30 PM 34.8203 -112.1431 258° West 406 467 38,000  Level Albuquerque Center
Fri 04:06:32 PM 34.7917 -112.3058 258° West 408 470 38,000 387 Level Albuquerque Center
Fri 04:07:34 PM 34.7675 -112.4386 258° West 406 467 38,800 774 Climbing Albuquerque Center
Fri 04:08:36 PM 34.7433 -112.5731 258° West 406 467 39,600 581 Climbing Albuquerque Center
Fri 04:09:38 PM 34.7192 -112.7075 258° West 407 468 40,000 194 Climbing Albuquerque Center
Fri 04:10:40 PM 34.7358 -112.8394 279° West 408 470 40,000  Level Albuquerque Center
Fri 04:11:42 PM 34.7708 -112.9639 289° West 394 453 40,000  Level Albuquerque Center
Fri 04:12:44 PM 34.7469 -113.1258 260° West 412 474 40,000  Level Albuquerque Center
Fri 04:13:46 PM 34.7161 -113.2614 255° West 415 478 40,000  Level Albuquerque Center
Fri 04:14:48 PM 34.6853 -113.3964 255° West 416 479 40,000  Level Albuquerque Center
Fri 04:15:50 PM 34.6544 -113.5339 255° West 420 483 40,000  Level Albuquerque Center
Fri 04:16:52 PM 34.6203 -113.6808 254° West 420 483 40,000  Level Albuquerque Center
Fri 04:17:54 PM 34.5878 -113.8189 254° West 422 486 40,000  Level Albuquerque Center
Fri 04:18:57 PM 34.5567 -113.9533 254° West 417 480 40,000  Level Albuquerque Center
Fri 04:19:59 PM 34.5242 -114.0881 254° West 416 479 40,000  Level Albuquerque Center
Fri 04:21:01 PM 34.4856 -114.2486 254° West 414 476 40,000  Level Albuquerque Center
Fri 04:22:03 PM 34.4542 -114.3844 254° West 416 479 40,000  Level Albuquerque Center
Fri 04:23:05 PM 34.4208 -114.5217 254° West 421 484 40,000  Level Albuquerque Center
Fri 04:24:32 PM 34.3728 -114.7194 254° West 426 490 40,000  Level Los Angeles Center
Fri 04:25:34 PM 34.3394 -114.8550 253° West 425 489 40,000  Level Los Angeles Center
Fri 04:26:36 PM 34.3092 -114.9892 255° West 418 481 40,000  Level Los Angeles Center
Fri 04:27:38 PM 34.3200 -115.1219 276° West 401 461 40,000 -48 Level Los Angeles Center
Fri 04:28:40 PM 34.3375 -115.2781 278° West 393 452 39,900 -532 Descending Los Angeles Center
Fri 04:29:42 PM 34.3522 -115.4053 240° Southwest 386 444 38,900 -968 Descending Los Angeles Center
Fri 04:30:00 PM 34.2652 -115.4275 240° Southwest  Level FlightAware Approximate
Fri 04:30:44 PM 34.3672 -115.5281 278° West 375 432 37,900  Level Los Angeles Center
Fri 04:31:47 PM 34.3653 -115.6467 269° West 369 425 37,000 -912 Descending Los Angeles Center
Fri 04:32:49 PM 34.2783 -115.7419 222° Southwest 418 481 36,000 -1,016 Descending Los Angeles Center
Fri 04:33:51 PM 34.1831 -115.8639 227° Southwest 421 484 34,900 -1,645 Descending Los Angeles Center
Fri 04:34:53 PM 34.1619 -115.9694 256° West 403 464 32,600 -2,516 Descending Los Angeles Center
Fri 04:35:55 PM 34.1358 -116.1239 258° West 393 452 29,700 -2,032 Descending Los Angeles Center
Fri 04:36:57 PM 34.1147 -116.2403 258° West 374 430 28,400 -1,065 Descending Los Angeles Center
Fri 04:37:59 PM 34.0939 -116.3567 258° West 360 414 27,500 -919 Descending Los Angeles Center
Fri 04:39:01 PM 34.0708 -116.4800 257° West 373 429 26,500 -1,056 Descending Los Angeles Center
Fri 04:40:04 PM 34.0442 -116.6264 258° West 375 432 25,300 -1,440 Descending Los Angeles Center
Fri 04:41:06 PM 34.0219 -116.7478 258° West 373 429 23,500 -1,887 Descending Los Angeles Center
Fri 04:42:08 PM 33.9997 -116.8664 257° West 367 422 21,400 -2,032 Descending Los Angeles Center
Fri 04:43:10 PM 33.9786 -116.9814 258° West 357 411 19,300 -1,742 Descending Los Angeles Center
Fri 04:44:12 PM 33.9658 -117.0936 262° West 345 397 17,800 -1,306 Descending Los Angeles Center
Fri 04:45:14 PM 33.9783 -117.2161 277° West 354 407 16,600 -1,839 Descending Los Angeles Center
Fri 04:46:16 PM 33.9911 -117.3578 276° West 356 410 14,000 -2,371 Descending Los Angeles Center
Fri 04:47:18 PM 34.0017 -117.4725 276° West 348 400 11,700 -1,632 Descending Los Angeles Center
Fri 04:48:21 PM 34.0111 -117.5822 276° West 336 387 10,600 -816 Descending Los Angeles Center
Fri 04:49:23 PM 34.0211 -117.6853 277° West 317 365 10,000 -955 Descending Los Angeles Center
Fri 04:50:33 PM 34.0167 -117.8000 267° West 280 322 8,500 -1,328 Descending Southern California TRACON
Fri 04:51:34 PM 34.0000 -117.9000 259° West 273 314 7,100 -1,190 Descending Southern California TRACON
Fri 04:52:34 PM 34.0000 -118.0000 270° West 279 321 6,100 -1,250 Descending Southern California TRACON
Fri 04:53:34 PM 33.9833 -118.0833 256° West 273 314 4,600 -1,474 Descending Southern California TRACON
Fri 04:54:28 PM 33.9833 -118.1667 270° West 278 320 3,300 -793 Descending Southern California TRACON
Fri 04:55:35 PM 33.9683 -118.2467 257° West 261 300 3,000 -646 Descending Los Angeles Center
Fri 04:56:38 PM 33.9619 -118.3119 263° West 191 220 1,900 -1,008 Descending Los Angeles Center
Fri 04:57:40 PM 33.9567 -118.3594 262° West 162 186 900 -871 Descending Los Angeles Center
Fri 04:58:42 PM 33.9508 -118.4022 261° West 143 165 100 -774 Descending Los Angeles Center
Fri 05:00:00 PM 33.9425 -118.4081 270° West  Level Estimated
Fri 05:07:00 PM 33.9425 -118.4081 270° West  Level Estimated

Login

Don't have an account? Register now (free) for customized features, flight alerts, and more!